Time;durP1;ratioP1;P1;durP2;ratioP2;P2;SDS_P1;SDS_P2;PMS_P1;PMS_P2;Temp;Humidity;BMP_temperature;BMP_pressure;BME280_temperature;BME280_humidity;BME280_pressure;Samples;Min_cycle;Max_cycle;Signal;HPM_P1;HPM_P2
2021/09/07 00:02:21;;;;;;;;;5.00;5.00;;;;;15.06;49.50;102470.19;4839812;29;9363;-76
2021/09/07 00:05:17;;;;;;;;;6.00;6.00;;;;;14.82;50.15;102472.47;4842808;29;9629;-76
2021/09/07 00:08:13;;;;;;;;;3.67;3.67;;;;;14.70;47.01;102468.28;4842720;29;9760;-76
2021/09/07 00:11:08;;;;;;;;;7.00;7.00;;;;;14.74;46.99;102471.28;4831396;29;9448;-77
2021/09/07 00:14:04;;;;;;;;;6.00;6.00;;;;;14.78;49.89;102472.28;4825546;29;9578;-76
2021/09/07 00:16:59;;;;;;;;;5.75;5.75;;;;;14.54;49.03;102480.09;4840552;29;9368;-77
2021/09/07 00:19:55;;;;;;;;;6.00;6.00;;;;;14.35;49.09;102480.25;4842617;29;10510;-76
2021/09/07 00:22:51;;;;;;;;;4.50;4.50;;;;;14.29;51.49;102485.09;4843559;29;9443;-76
2021/09/07 00:25:19;;;;;;;;;6.00;6.00;;;;;14.38;49.80;102486.00;4858353;29;9776;-76
2021/09/07 00:28:14;;;;;;;;;6.75;5.75;;;;;14.03;48.41;102481.22;4861661;29;9652;-76
2021/09/07 00:31:10;;;;;;;;;8.00;8.00;;;;;14.15;50.17;102478.72;4861827;29;9871;-76
2021/09/07 00:34:05;;;;;;;;;4.00;4.00;;;;;14.15;49.25;102479.56;4848725;29;9785;-76
2021/09/07 00:37:02;;;;;;;;;6.50;6.50;;;;;14.30;48.06;102477.56;4861530;29;9770;-76
2021/09/07 00:39:57;;;;;;;;;5.75;5.75;;;;;14.38;53.61;102474.88;4862412;29;9666;-76
2021/09/07 00:42:53;;;;;;;;;5.00;5.00;;;;;14.44;50.13;102479.19;4862807;29;9751;-76
2021/09/07 00:45:49;;;;;;;;;3.00;3.00;;;;;14.36;48.01;102476.31;4861415;29;9944;-76
2021/09/07 00:48:44;;;;;;;;;5.25;5.25;;;;;14.05;49.23;102479.78;4843413;29;9381;-77
2021/09/07 00:51:42;;;;;;;;;5.75;5.75;;;;;13.96;53.22;102484.44;4843702;29;10583;-76
2021/09/07 00:54:38;;;;;;;;;4.00;4.00;;;;;14.02;50.47;102485.97;4841927;29;9846;-76
2021/09/07 00:57:35;;;;;;;;;5.25;4.25;;;;;14.11;52.53;102480.50;4843880;29;10820;-76
2021/09/07 01:00:31;;;;;;;;;5.00;5.00;;;;;14.31;54.05;102480.03;4841846;29;9834;-76
2021/09/07 01:03:26;;;;;;;;;6.75;6.75;;;;;14.09;48.38;102488.31;4842630;29;9725;-76
2021/09/07 01:06:22;;;;;;;;;5.50;5.50;;;;;14.10;49.69;102482.44;4851462;29;10039;-77
2021/09/07 01:09:17;;;;;;;;;5.75;5.75;;;;;14.01;49.23;102484.31;4871590;29;10464;-76
2021/09/07 01:11:48;;;;;;;;;5.00;5.00;;;;;13.95;49.48;102488.34;4861878;29;10819;-76
2021/09/07 01:14:44;;;;;;;;;6.50;6.50;;;;;13.90;51.01;102477.34;4860820;29;9748;-76
2021/09/07 01:17:40;;;;;;;;;5.75;5.75;;;;;13.68;48.85;102480.84;4871454;29;9929;-77
2021/09/07 01:20:35;;;;;;;;;7.00;6.75;;;;;14.21;54.46;102485.03;4860773;29;10125;-76
2021/09/07 01:23:31;;;;;;;;;11.50;10.75;;;;;14.22;54.83;102484.69;4860993;29;9951;-76
2021/09/07 01:26:27;;;;;;;;;10.25;10.25;;;;;13.94;50.67;102483.91;4859506;29;10375;-76
2021/09/07 01:28:55;;;;;;;;;19.75;19.00;;;;;14.03;51.96;102481.22;4861585;29;9940;-76
2021/09/07 01:31:52;;;;;;;;;13.75;13.75;;;;;13.94;51.86;102481.13;4860277;29;10357;-76
2021/09/07 01:34:48;;;;;;;;;22.25;22.25;;;;;14.32;53.88;102478.06;4859115;29;10298;-76
2021/09/07 01:37:43;;;;;;;;;27.50;26.00;;;;;14.06;49.50;102484.22;4848161;29;10362;-76
2021/09/07 01:40:39;;;;;;;;;26.00;21.75;;;;;14.05;51.46;102484.53;4859898;29;11232;-76
2021/09/07 01:43:35;;;;;;;;;33.75;33.75;;;;;13.81;49.91;102480.03;4847919;29;10604;-76
2021/09/07 01:46:31;;;;;;;;;14.75;14.75;;;;;14.19;55.50;102480.59;4848351;29;10954;-76
2021/09/07 01:49:26;;;;;;;;;24.50;24.50;;;;;14.08;54.01;102489.47;4862622;29;10441;-76
2021/09/07 01:52:22;;;;;;;;;26.50;26.50;;;;;13.85;51.46;102491.34;4878826;29;10677;-76
2021/09/07 01:55:18;;;;;;;;;20.00;20.00;;;;;13.94;51.93;102502.56;4863721;29;10758;-76
2021/09/07 01:57:47;;;;;;;;;25.50;25.00;;;;;13.87;52.60;102498.22;4874100;29;10693;-76
2021/09/07 02:00:42;;;;;;;;;26.75;25.75;;;;;13.89;51.18;102503.50;4866705;29;10610;-76
2021/09/07 02:03:38;;;;;;;;;20.75;19.00;;;;;13.67;53.05;102511.72;4878291;29;10747;-77
2021/09/07 02:06:34;;;;;;;;;18.00;18.00;;;;;13.44;49.28;102500.47;4878291;29;10409;-77
2021/09/07 02:09:02;;;;;;;;;12.25;12.25;;;;;13.53;51.13;102506.16;4879341;29;10414;-77
2021/09/07 02:11:57;;;;;;;;;17.25;17.00;;;;;13.05;49.95;102520.31;4849828;29;10377;-76
2021/09/07 02:14:53;;;;;;;;;11.00;11.00;;;;;13.04;52.00;102518.69;4848982;29;10422;-77
2021/09/07 02:17:49;;;;;;;;;12.00;12.00;;;;;12.95;52.33;102512.94;4861268;29;11092;-76
2021/09/07 02:20:17;;;;;;;;;10.50;10.50;;;;;12.94;51.80;102516.88;4860669;29;10587;-76
2021/09/07 02:23:13;;;;;;;;;11.75;11.75;;;;;12.75;51.94;102514.13;4861153;29;10525;-77
2021/09/07 02:26:09;;;;;;;;;9.50;9.50;;;;;12.76;51.53;102514.94;4861103;29;10426;-76
2021/09/07 02:29:04;;;;;;;;;11.25;10.00;;;;;12.64;52.08;102528.44;4860895;29;10440;-76
2021/09/07 02:32:00;;;;;;;;;8.75;8.75;;;;;12.55;51.49;102522.75;4840006;29;10416;-76
2021/09/07 02:34:55;;;;;;;;;10.25;9.25;;;;;12.40;51.63;102529.34;4858978;29;10476;-77
2021/09/07 02:37:51;;;;;;;;;7.50;7.50;;;;;12.28;51.70;102526.19;4859233;29;10750;-77
2021/09/07 02:40:46;;;;;;;;;7.50;7.50;;;;;12.15;52.74;102530.50;4860138;29;10580;-76
2021/09/07 02:43:38;;;;;;;;;7.50;7.50;;;;;12.23;53.05;102529.03;4860548;29;10797;-77
2021/09/07 02:46:05;;;;;;;;;12.75;12.00;;;;;12.07;53.11;102527.56;4859128;29;10625;-77
2021/09/07 02:49:01;;;;;;;;;11.25;11.25;;;;;12.03;53.13;102530.09;4840970;29;10935;-77
2021/09/07 02:51:57;;;;;;;;;15.25;15.25;;;;;12.10;52.99;102538.88;4859383;29;10884;-77
2021/09/07 02:54:52;;;;;;;;;21.25;21.25;;;;;12.00;53.62;102530.69;4858701;29;11333;-77
2021/09/07 02:57:48;;;;;;;;;14.25;14.25;;;;;12.08;53.42;102535.59;4859456;29;11087;-76
2021/09/07 03:00:47;;;;;;;;;19.25;16.25;;;;;12.15;53.64;102538.84;4854701;29;11135;-82
2021/09/07 03:03:42;;;;;;;;;17.50;17.50;;;;;12.04;52.98;102533.69;4844176;29;11216;-81
2021/09/07 03:06:38;;;;;;;;;17.00;17.00;;;;;12.02;53.17;102544.25;4844738;29;11308;-81
2021/09/07 03:09:33;;;;;;;;;20.75;20.50;;;;;11.77;53.89;102537.88;4858944;29;11224;-80
2021/09/07 03:12:29;;;;;;;;;13.50;13.50;;;;;11.58;55.81;102548.06;4850492;29;11189;-81
2021/09/07 03:15:25;;;;;;;;;15.00;15.00;;;;;11.67;55.52;102549.06;4862608;29;10987;-80
2021/09/07 03:18:20;;;;;;;;;11.50;11.50;;;;;12.00;56.03;102557.59;4845246;29;11168;-79
2021/09/07 03:21:08;;;;;;;;;10.25;10.25;;;;;12.42;58.16;102559.56;4861588;29;11125;-80
2021/09/07 03:24:04;;;;;;;;;17.75;17.75;;;;;12.46;54.08;102563.41;4864206;29;11013;-79
2021/09/07 03:26:59;;;;;;;;;18.00;18.00;;;;;12.41;53.44;102569.00;4864054;29;11211;-81
2021/09/07 03:29:55;;;;;;;;;19.50;17.00;;;;;12.21;52.96;102567.34;4873652;29;11083;-81
2021/09/07 03:32:51;;;;;;;;;10.00;9.50;;;;;12.36;56.88;102563.56;4873288;29;10998;-82
2021/09/07 03:35:47;;;;;;;;;12.75;12.75;;;;;12.67;57.33;102559.22;4873473;29;10938;-79
2021/09/07 03:38:42;;;;;;;;;10.25;10.25;;;;;12.82;55.39;102569.28;4863142;29;10816;-80
2021/09/07 03:41:38;;;;;;;;;11.50;11.50;;;;;12.51;52.03;102569.72;4862514;29;11315;-79
2021/09/07 03:44:33;;;;;;;;;9.50;9.50;;;;;12.77;56.36;102570.16;4862517;29;10598;-79
2021/09/07 03:47:29;;;;;;;;;9.50;9.50;;;;;12.83;54.17;102575.66;4862041;29;10763;-79
2021/09/07 03:49:56;;;;;;;;;11.75;10.25;;;;;12.94;51.94;102569.63;4862863;29;10653;-79
2021/09/07 03:52:52;;;;;;;;;13.75;11.50;;;;;12.70;52.19;102568.91;4849849;29;10435;-79
2021/09/07 03:55:47;;;;;;;;;8.50;8.50;;;;;12.71;53.01;102568.59;4849870;29;10574;-79
2021/09/07 03:58:43;;;;;;;;;11.00;11.00;;;;;13.15;56.60;102574.88;4859138;29;10683;-81
2021/09/07 04:01:39;;;;;;;;;10.00;10.00;;;;;13.63;56.22;102572.69;4850146;29;10422;-79
2021/09/07 04:04:34;;;;;;;;;12.25;12.25;;;;;13.63;52.52;102567.13;4858763;29;10520;-81
2021/09/07 04:07:30;;;;;;;;;10.25;10.25;;;;;14.00;57.21;102571.69;4862411;29;10569;-82
2021/09/07 04:10:26;;;;;;;;;12.25;12.25;;;;;13.88;54.34;102574.19;4844497;29;10540;-82
2021/09/07 04:13:21;;;;;;;;;13.25;11.75;;;;;14.13;53.18;102570.88;4861823;29;10344;-81
2021/09/07 04:15:49;;;;;;;;;12.75;10.25;;;;;13.87;54.13;102576.09;4861230;29;10259;-80
2021/09/07 04:18:44;;;;;;;;;19.50;17.50;;;;;13.87;51.10;102589.19;4849404;29;10098;-79
2021/09/07 04:21:12;;;;;;;;;11.00;11.00;;;;;13.77;51.26;102586.59;4862810;29;10262;-80
2021/09/07 04:24:08;;;;;;;;;11.00;11.00;;;;;13.74;53.50;102593.63;4850589;29;10205;-80
2021/09/07 04:27:04;;;;;;;;;10.00;8.25;;;;;13.33;50.09;102597.09;4872373;29;10151;-80
2021/09/07 04:29:32;;;;;;;;;8.50;8.50;;;;;13.22;52.41;102601.19;4862647;29;10224;-81
2021/09/07 04:31:59;;;;;;;;;9.75;9.75;;;;;13.31;51.21;102604.09;4862869;29;10325;-79
2021/09/07 04:34:27;;;;;;;;;5.00;5.00;;;;;13.64;54.42;102600.16;4862704;29;10418;-80
2021/09/07 04:36:54;;;;;;;;;6.75;6.75;;;;;13.98;52.60;102601.78;4862568;29;10103;-80
2021/09/07 04:39:22;;;;;;;;;48.25;32.25;;;;;13.65;50.45;102601.03;4862453;29;10092;-80
2021/09/07 04:41:49;;;;;;;;;8.50;8.50;;;;;13.70;51.66;102600.91;4862547;29;10770;-81
2021/09/07 04:44:21;;;;;;;;;10.50;10.50;;;;;14.12;52.05;102593.44;4862410;29;9958;-80
2021/09/07 04:46:48;;;;;;;;;18.75;18.00;;;;;14.22;51.27;102601.59;4862382;29;10016;-81
2021/09/07 04:49:16;;;;;;;;;6.25;6.25;;;;;14.39;52.13;102600.94;4862029;29;10185;-81
2021/09/07 04:51:43;;;;;;;;;10.50;9.50;;;;;14.46;50.22;102598.59;4862262;29;10674;-80
2021/09/07 04:54:11;;;;;;;;;8.25;7.75;;;;;14.47;50.01;102611.38;4862325;29;9976;-81
2021/09/07 04:56:38;;;;;;;;;7.50;7.50;;;;;14.88;52.42;102604.94;4862299;29;9757;-82
2021/09/07 04:59:07;;;;;;;;;6.25;5.50;;;;;14.80;48.00;102611.22;4862217;29;9814;-80
2021/09/07 05:01:35;;;;;;;;;6.00;5.75;;;;;14.47;47.43;102616.97;4861015;29;9763;-80
2021/09/07 05:04:03;;;;;;;;;6.00;6.00;;;;;14.32;48.88;102617.25;4860899;29;9789;-80
2021/09/07 05:06:31;;;;;;;;;6.25;6.25;;;;;14.68;53.63;102620.97;4845974;29;9541;-81
2021/09/07 05:09:00;;;;;;;;;7.50;7.50;;;;;14.94;49.64;102614.81;4861845;29;9774;-82
2021/09/07 05:11:28;;;;;;;;;10.00;8.00;;;;;14.84;48.86;102609.47;4875926;29;10411;-80
2021/09/07 05:14:15;;;;;;;;;6.00;6.00;;;;;14.64;48.99;102621.88;4862379;29;9639;-80
2021/09/07 05:16:43;;;;;;;;;9.75;7.50;;;;;14.54;46.99;102620.16;4861953;29;9800;-80
2021/09/07 05:19:13;;;;;;;;;6.00;6.00;;;;;15.00;53.63;102614.38;4861806;29;9584;-82
2021/09/07 05:22:00;;;;;;;;;6.75;6.75;;;;;15.15;49.99;102609.59;4873539;29;10271;-82
2021/09/07 05:24:28;;;;;;;;;5.00;4.67;;;;;15.28;47.94;102628.22;4861420;29;9620;-81
2021/09/07 05:26:56;;;;;;;;;13.00;13.00;;;;;15.30;47.37;102626.75;4874944;29;9375;-81
2021/09/07 05:29:23;;;;;;;;;4.00;4.00;;;;;14.99;45.82;102614.69;4861513;29;9602;-79
2021/09/07 05:31:51;;;;;;;;;6.33;6.33;;;;;15.27;47.57;102627.41;4861403;29;9531;-81
2021/09/07 05:34:18;;;;;;;;;6.00;6.00;;;;;15.65;48.90;102627.06;4861407;29;9346;-81
2021/09/07 05:36:46;;;;;;;;;16.00;13.00;;;;;15.59;45.88;102628.28;4845211;29;9436;-80
2021/09/07 05:39:13;;;;;;;;;6.33;6.33;;;;;16.05;48.82;102633.50;4861419;29;9368;-81
2021/09/07 05:41:42;;;;;;;;;6.00;6.00;;;;;16.49;49.63;102640.06;4861240;29;9050;-80
2021/09/07 05:44:10;;;;;;;;;4.00;4.00;;;;;16.48;44.78;102632.00;4861066;29;9238;-80
2021/09/07 05:46:38;;;;;;;;;3.00;3.00;;;;;16.47;45.06;102631.19;4861544;29;8985;-80
2021/09/07 05:49:06;;;;;;;;;4.67;4.67;;;;;16.11;43.43;102635.00;4860960;29;8980;-81
2021/09/07 05:51:35;;;;;;;;;3.00;3.00;;;;;16.01;44.32;102640.84;4861183;29;9050;-80
2021/09/07 05:54:03;;;;;;;;;5.00;5.00;;;;;16.39;50.06;102629.19;4860974;29;8874;-81
2021/09/07 05:56:31;;;;;;;;;7.75;6.50;;;;;16.80;47.10;102631.63;4844930;29;8878;-81
2021/09/07 05:58:59;;;;;;;;;10.00;8.67;;;;;17.18;44.92;102634.63;4874756;29;8913;-80
2021/09/07 06:01:27;;;;;;;;;3.50;3.50;;;;;17.10;45.11;102638.25;4861138;29;9112;-84
2021/09/07 06:03:57;;;;;;;;;2.00;2.00;;;;;17.24;45.35;102629.66;4874870;29;9017;-81
2021/09/07 06:06:28;;;;;;;;;3.50;3.50;;;;;17.56;44.00;102635.88;4860800;29;9664;-82
2021/09/07 06:08:56;;;;;;;;;4.50;4.50;;;;;17.18;41.45;102642.19;4844482;29;8886;-80
2021/09/07 06:11:24;;;;;;;;;3.00;3.00;;;;;17.57;43.06;102640.34;4844611;29;8878;-82
2021/09/07 06:13:54;;;;;;;;;26.25;18.00;;;;;17.10;40.09;102648.56;4860887;29;8882;-86
2021/09/07 06:16:23;;;;;;;;;2.00;2.00;;;;;17.14;42.14;102652.38;4860863;29;8894;-80
2021/09/07 06:19:11;;;;;;;;;3.00;3.00;;;;;17.37;45.26;102647.44;4860803;29;8875;-83
2021/09/07 06:21:38;;;;;;;;;0.75;0.75;;;;;17.56;40.56;102645.13;4860796;29;9691;-79
2021/09/07 06:24:06;;;;;;;;;4.00;4.00;;;;;17.57;43.99;102654.34;4861339;29;8894;-82
2021/09/07 06:26:34;;;;;;;;;1.00;1.00;;;;;17.66;39.18;102655.16;4861318;29;8863;-81
2021/09/07 06:29:02;;;;;;;;;1.00;1.00;;;;;18.04;42.06;102658.03;4844310;29;8897;-76
2021/09/07 06:31:30;;;;;;;;;3.25;3.25;;;;;17.96;42.01;102653.28;4859410;29;8874;-81
2021/09/07 06:33:58;;;;;;;;;3.00;3.00;;;;;17.62;38.28;102660.56;4859991;29;8917;-80
2021/09/07 06:36:25;;;;;;;;;8.00;4.75;;;;;17.74;38.42;102665.53;4859670;29;8890;-80
2021/09/07 06:39:21;;;;;;;;;2.00;2.00;;;;;18.12;40.00;102656.38;4860834;29;8894;-79
2021/09/07 06:42:17;;;;;;;;;2.00;2.00;;;;;18.28;38.43;102660.25;4854874;29;8972;-79
2021/09/07 06:45:13;;;;;;;;;2.00;2.00;;;;;18.31;40.43;102662.38;4873314;29;8879;-76
2021/09/07 06:48:08;;;;;;;;;2.00;2.00;;;;;18.67;39.95;102658.28;4846315;29;8873;-80
2021/09/07 06:51:04;;;;;;;;;4.00;4.00;;;;;19.05;39.86;102659.00;4844683;29;8915;-80
2021/09/07 06:54:00;;;;;;;;;2.00;2.00;;;;;18.82;38.61;102663.31;4854653;29;8863;-80
2021/09/07 06:56:28;;;;;;;;;2.00;2.00;;;;;18.74;36.52;102665.00;4849632;29;8899;-80
2021/09/07 06:59:24;;;;;;;;;1.00;1.00;;;;;18.46;39.80;102664.63;4866193;29;8885;-79
2021/09/07 07:02:20;;;;;;;;;1.75;1.75;;;;;19.02;37.86;102668.13;4854940;29;8968;-78
2021/09/07 07:05:16;;;;;;;;;3.00;3.00;;;;;18.86;34.73;102669.84;4859069;29;8898;-79
2021/09/07 07:08:11;;;;;;;;;1.25;1.25;;;;;19.27;36.10;102669.06;4866930;29;8864;-78
2021/09/07 07:10:54;;;;;;;;;2.00;2.00;;;;;19.57;37.41;102677.44;4869402;29;8889;-79
2021/09/07 07:13:49;;;;;;;;;3.75;3.75;;;;;19.57;34.11;102675.44;4832613;29;8911;-79
2021/09/07 07:16:46;;;;;;;;;1.00;1.00;;;;;19.81;36.19;102673.88;4872197;29;8887;-79
2021/09/07 07:19:24;;;;;;;;;1.75;1.75;;;;;19.80;35.48;102669.44;4863036;29;8871;-80
2021/09/07 07:22:21;;;;;;;;;1.75;1.75;;;;;19.62;33.59;102678.00;4867646;29;9001;-80
2021/09/07 07:25:03;;;;;;;;;1.00;1.00;;;;;19.53;35.66;102676.44;4835800;29;9608;-81
2021/09/07 07:27:32;;;;;;;;;1.00;1.00;;;;;19.74;34.20;102676.44;4848870;29;8890;-81
2021/09/07 07:30:28;;;;;;;;;2.00;2.00;;;;;19.90;38.00;102686.66;4860076;29;8926;-80
2021/09/07 07:33:24;;;;;;;;;2.25;2.25;;;;;20.33;38.22;102688.16;4859051;29;8885;-79
2021/09/07 07:36:16;;;;;;;;;2.75;2.75;;;;;20.35;36.72;102688.63;4860280;29;8958;-79
2021/09/07 07:38:46;;;;;;;;;0.75;0.75;;;;;20.26;31.24;102685.91;4858831;29;8874;-80
2021/09/07 07:41:13;;;;;;;;;2.00;2.00;;;;;20.06;31.38;102681.19;4841986;29;8876;-78
2021/09/07 07:43:46;;;;;;;;;1.00;1.00;;;;;20.25;33.26;102689.09;4841506;29;8905;-78
2021/09/07 07:46:17;;;;;;;;;1.00;1.00;;;;;20.60;34.21;102688.66;4855698;29;8949;-77
2021/09/07 07:48:45;;;;;;;;;1.25;1.25;;;;;20.52;32.19;102684.78;4860092;29;8908;-77
2021/09/07 07:51:40;;;;;;;;;2.00;2.00;;;;;20.49;31.32;102677.91;4862152;29;8875;-80
2021/09/07 07:54:36;;;;;;;;;3.00;3.00;;;;;20.52;30.74;102690.41;4866468;29;8898;-82
2021/09/07 07:57:04;;;;;;;;;1.00;1.00;;;;;20.61;32.33;102687.50;4870922;29;8887;-81
2021/09/07 08:00:00;;;;;;;;;1.00;1.00;;;;;20.12;29.20;102673.38;4860010;29;8909;-79
2021/09/07 08:02:55;;;;;;;;;2.00;2.00;;;;;20.27;29.42;102679.13;4843982;29;9625;-81
2021/09/07 08:05:51;;;;;;;;;1.00;1.00;;;;;20.25;34.33;102681.47;4874033;29;8887;-79
2021/09/07 08:08:47;;;;;;;;;0.75;0.75;;;;;20.35;30.29;102668.13;4868056;29;8941;-80
2021/09/07 08:11:43;;;;;;;;;1.00;1.00;;;;;20.44;30.39;102671.69;4860977;29;8874;-79
2021/09/07 08:14:38;;;;;;;;;1.75;1.75;;;;;20.48;31.66;102670.63;4867923;29;8883;-80
2021/09/07 08:17:34;;;;;;;;;1.00;1.00;;;;;20.60;32.20;102674.59;4852108;29;8882;-80
2021/09/07 08:20:19;;;;;;;;;1.00;1.00;;;;;20.93;31.85;102671.63;4849383;29;8886;-78
2021/09/07 08:22:47;;;;;;;;;1.00;1.00;;;;;20.81;28.32;102664.88;4846873;29;8874;-82
2021/09/07 08:25:15;;;;;;;;;1.00;1.00;;;;;20.93;27.44;102666.81;4846365;29;8989;-81
2021/09/07 08:27:43;;;;;;;;;1.00;1.00;;;;;21.06;31.59;102665.63;4862869;29;8881;-80
2021/09/07 08:30:11;;;;;;;;;0.00;0.00;;;;;21.39;29.08;102664.63;4862738;29;8905;-84
2021/09/07 08:32:40;;;;;;;;;1.00;1.00;;;;;21.46;29.76;102666.81;4861491;29;8866;-79
2021/09/07 08:35:10;;;;;;;;;2.00;2.00;;;;;21.67;27.44;102673.06;4862627;29;8919;-80
2021/09/07 08:37:39;;;;;;;;;2.00;2.00;;;;;21.79;27.62;102673.03;4862755;29;8956;-80
2021/09/07 08:40:09;;;;;;;;;1.50;1.50;;;;;21.95;28.07;102675.88;4862668;29;8871;-81
2021/09/07 08:42:37;;;;;;;;;1.00;1.00;;;;;22.14;31.96;102658.28;4862367;29;8886;-79
2021/09/07 08:45:11;;;;;;;;;4.00;2.75;;;;;22.09;26.78;102665.00;4862333;29;9617;-81
2021/09/07 08:47:38;;;;;;;;;0.75;0.75;;;;;22.21;27.31;102664.09;4862636;29;8944;-80
2021/09/07 08:50:07;;;;;;;;;0.60;0.60;;;;;22.05;26.65;102668.88;4846286;29;8862;-80
2021/09/07 08:52:36;;;;;;;;;1.00;1.00;;;;;22.29;30.46;102651.81;4862260;29;8874;-81
2021/09/07 08:55:04;;;;;;;;;1.40;1.40;;;;;22.27;26.78;102656.19;4862155;29;8877;-81
2021/09/07 08:57:32;;;;;;;;;1.20;1.20;;;;;22.47;26.69;102660.75;4862315;29;8886;-81
2021/09/07 09:00:05;;;;;;;;;1.00;1.00;;;;;22.55;25.80;102656.09;4861884;29;8881;-81
2021/09/07 09:02:43;;;;;;;;;0.60;0.60;;;;;22.25;25.17;102658.56;4865096;29;8936;-82
2021/09/07 09:05:12;;;;;;;;;0.80;0.80;;;;;22.44;28.91;102656.63;4847699;29;8871;-81
2021/09/07 09:07:39;;;;;;;;;1.80;1.80;;;;;22.31;26.33;102652.25;4862153;29;9001;-80
2021/09/07 09:10:18;;;;;;;;;0.80;0.80;;;;;22.18;24.99;102660.00;4863218;29;8889;-80
2021/09/07 09:12:46;;;;;;;;;1.00;1.00;;;;;22.36;24.63;102651.19;4864003;29;9005;-81
2021/09/07 09:15:20;;;;;;;;;0.80;0.80;;;;;22.55;25.92;102651.25;4845300;29;8878;-83
2021/09/07 09:17:52;;;;;;;;;0.20;0.20;;;;;22.94;27.75;102651.38;4861627;29;8898;-83
2021/09/07 09:20:20;;;;;;;;;1.00;1.00;;;;;23.18;26.86;102651.13;4864422;29;8901;-81
2021/09/07 09:22:56;;;;;;;;;1.00;1.00;;;;;22.72;24.34;102655.69;4863535;29;8890;-82
2021/09/07 09:25:30;;;;;;;;;1.00;1.00;;;;;23.08;24.92;102654.53;4861673;29;8901;-82
2021/09/07 09:27:58;;;;;;;;;0.80;0.80;;;;;23.17;24.18;102659.97;4861627;29;8878;-81
2021/09/07 09:30:39;;;;;;;;;2.00;2.00;;;;;23.31;26.14;102651.78;4845473;29;8885;-80
2021/09/07 09:33:10;;;;;;;;;1.00;1.00;;;;;23.11;24.88;102641.69;4862010;29;8862;-79
2021/09/07 09:35:45;;;;;;;;;1.00;1.00;;;;;23.25;25.56;102653.28;4862505;29;8890;-80
2021/09/07 09:38:14;;;;;;;;;1.20;1.20;;;;;23.40;24.23;102652.38;4845836;29;8952;-80
2021/09/07 09:40:41;;;;;;;;;0.60;0.60;;;;;23.71;26.90;102657.06;4860728;29;8897;-83
2021/09/07 09:43:54;;;;;;;;;1.80;0.80;;;;;24.12;25.44;102646.09;4862233;29;8890;-82
2021/09/07 09:46:26;;;;;;;;;1.80;1.80;;;;;24.18;25.77;102646.59;4832471;29;8921;-83
2021/09/07 09:49:12;;;;;;;;;1.00;1.00;;;;;24.40;25.16;102652.28;4860308;29;8937;-84
2021/09/07 09:51:42;;;;;;;;;0.60;0.60;;;;;24.50;24.22;102647.16;4856955;29;9616;-82
2021/09/07 09:54:39;;;;;;;;;1.00;1.00;;;;;23.96;24.44;102640.56;4864169;29;8893;-85
2021/09/07 09:57:35;;;;;;;;;0.80;0.80;;;;;24.42;24.37;102649.06;4862932;29;8866;-86
2021/09/07 10:00:31;;;;;;;;;1.00;1.00;;;;;24.42;26.29;102642.59;4861216;29;8937;-82
2021/09/07 10:03:27;;;;;;;;;1.00;1.00;;;;;23.86;23.28;102638.38;4861239;29;8883;-83
2021/09/07 10:06:00;;;;;;;;;0.80;0.80;;;;;23.41;22.77;102637.06;4861296;29;8885;-81
2021/09/07 10:08:56;;;;;;;;;1.00;1.00;;;;;23.79;25.29;102641.06;4859438;29;8863;-81
2021/09/07 10:12:10;;;;;;;;;2.00;2.00;;;;;24.37;24.38;102638.88;4864126;29;9587;-83
2021/09/07 10:24:52;;;;;;;;;0.80;0.80;;;;;24.82;23.44;102634.31;4860735;29;8887;-82
2021/09/07 10:28:08;;;;;;;;;0.00;0.00;;;;;24.81;24.32;102631.88;4841374;29;8869;-82
2021/09/07 10:31:13;;;;;;;;;1.80;1.80;;;;;24.73;24.12;102638.63;4832586;29;8988;-82
2021/09/07 10:33:56;;;;;;;;;1.00;1.00;;;;;25.36;24.90;102637.88;4860684;29;8897;-81
2021/09/07 10:36:59;;;;;;;;;2.00;2.00;;;;;25.57;22.38;102638.13;4858932;29;8873;-82
2021/09/07 10:39:54;;;;;;;;;0.40;0.40;;;;;25.11;22.41;102637.56;4859474;29;8878;-81
2021/09/07 10:42:53;;;;;;;;;1.40;1.40;;;;;25.23;24.41;102629.66;4855748;29;8884;-80
2021/09/07 10:45:50;;;;;;;;;1.00;1.00;;;;;25.44;22.48;102634.72;4861325;29;8915;-81
2021/09/07 10:48:45;;;;;;;;;1.80;1.80;;;;;25.16;22.72;102638.06;4859380;29;8886;-81
2021/09/07 10:52:07;;;;;;;;;0.20;0.20;;;;;25.22;22.50;102636.50;4841859;29;9617;-80
2021/09/07 10:55:12;;;;;;;;;1.80;1.80;;;;;25.33;24.56;102636.63;4846913;29;8916;-81
2021/09/07 10:58:28;;;;;;;;;1.80;1.80;;;;;25.66;21.42;102634.97;4853708;29;8987;-82
2021/09/07 11:01:24;;;;;;;;;1.40;1.40;;;;;24.99;22.02;102630.09;4858262;29;8898;-84
2021/09/07 11:04:33;;;;;;;;;1.80;1.80;;;;;25.65;23.26;102634.16;4877315;29;8897;-79
2021/09/07 11:07:44;;;;;;;;;2.80;2.80;;;;;26.12;22.12;102635.47;4840727;29;9703;-80
2021/09/07 11:10:49;;;;;;;;;3.80;3.80;;;;;25.46;22.14;102635.19;4842265;29;8861;-82
2021/09/07 11:13:45;;;;;;;;;1.80;1.80;;;;;25.44;22.49;102616.94;4846165;29;8862;-81
2021/09/07 11:16:27;;;;;;;;;1.60;1.60;;;;;25.83;20.46;102620.19;4855966;29;8882;-80
2021/09/07 11:19:23;;;;;;;;;1.80;1.80;;;;;26.30;21.79;102627.94;4841482;29;9021;-85
2021/09/07 11:22:27;;;;;;;;;0.20;0.20;;;;;26.10;22.60;102628.56;4862136;29;8900;-81
2021/09/07 11:25:24;;;;;;;;;2.00;2.00;;;;;25.94;21.73;102618.28;4833252;29;8912;-81
2021/09/07 11:28:20;;;;;;;;;2.60;2.60;;;;;25.89;21.28;102603.66;4861443;29;8870;-79
2021/09/07 11:30:51;;;;;;;;;0.80;0.80;;;;;26.18;21.58;102599.88;4859127;29;8896;-83
2021/09/07 11:33:47;;;;;;;;;0.80;0.80;;;;;26.06;21.16;102612.31;4847262;29;8897;-80
2021/09/07 11:36:42;;;;;;;;;2.00;2.00;;;;;25.96;21.21;102606.56;4847250;29;8873;-75
2021/09/07 11:39:38;;;;;;;;;0.20;0.20;;;;;26.37;22.29;102604.44;4862443;29;8901;-75
2021/09/07 11:43:00;;;;;;;;;0.80;0.80;;;;;26.49;21.74;102606.19;4862768;29;8879;-82
2021/09/07 11:46:15;;;;;;;;;1.20;1.20;;;;;26.52;21.91;102606.22;4863358;29;8866;-80
2021/09/07 11:49:13;;;;;;;;;1.60;1.60;;;;;26.80;24.60;102608.41;4864519;29;8862;-82
2021/09/07 11:52:09;;;;;;;;;1.00;1.00;;;;;26.49;20.48;102615.53;4854623;29;9600;-82
2021/09/07 11:55:28;;;;;;;;;1.00;1.00;;;;;26.83;20.04;102599.09;4852218;29;8866;-80
2021/09/07 11:57:58;;;;;;;;;1.40;1.40;;;;;27.17;22.02;102606.59;4863285;29;8988;-82
2021/09/07 12:00:59;;;;;;;;;4.20;3.20;;;;;27.05;20.14;102597.22;4863662;29;8953;-83
2021/09/07 12:04:00;;;;;;;;;1.00;1.00;;;;;27.23;22.05;102605.81;4860806;29;8973;-82
2021/09/07 12:07:04;;;;;;;;;0.20;0.20;;;;;26.97;21.12;102606.88;4863194;29;8886;-84
2021/09/07 12:10:06;;;;;;;;;0.00;0.00;;;;;27.09;20.46;102597.25;4844331;29;8931;-83
2021/09/07 12:13:18;;;;;;;;;4.80;3.00;;;;;27.04;20.25;102591.94;4844302;29;9620;-85
2021/09/07 12:16:22;;;;;;;;;1.00;1.00;;;;;27.38;20.14;102578.28;4834521;29;8897;-83
2021/09/07 12:18:56;;;;;;;;;0.40;0.40;;;;;27.25;19.56;102568.47;4864131;29;8974;-83
2021/09/07 12:22:13;;;;;;;;;0.00;0.00;;;;;26.94;20.56;102575.63;4852780;29;9635;-84
2021/09/07 12:25:12;;;;;;;;;1.60;1.60;;;;;27.54;21.03;102577.91;4849756;29;8879;-82
2021/09/07 12:28:16;;;;;;;;;1.00;1.00;;;;;27.27;22.79;102578.22;4870875;29;8890;-82
2021/09/07 12:31:13;;;;;;;;;0.00;0.00;;;;;26.47;20.29;102571.75;4881337;29;8876;-82
2021/09/07 12:34:00;;;;;;;;;0.00;0.00;;;;;27.26;21.04;102567.25;4849270;29;8911;-84
2021/09/07 12:36:55;;;;;;;;;0.00;0.00;;;;;27.32;19.26;102557.94;4851021;29;8881;-82
2021/09/07 12:39:51;;;;;;;;;0.20;0.20;;;;;27.28;19.61;102556.31;4835767;29;8930;-80
2021/09/07 12:42:47;;;;;;;;;2.00;1.20;;;;;27.18;20.50;102559.94;4860288;29;9637;-81
2021/09/07 12:45:34;;;;;;;;;1.00;1.00;;;;;27.60;20.92;102553.53;4850701;29;8902;-83
2021/09/07 12:48:30;;;;;;;;;0.20;0.20;;;;;27.78;19.89;102559.28;4860591;29;8879;-82
2021/09/07 12:51:25;;;;;;;;;0.00;0.00;;;;;28.24;20.25;102553.56;4837419;29;8858;-80
2021/09/07 12:54:21;;;;;;;;;0.00;0.00;;;;;27.90;19.49;102550.31;4862885;29;8886;-80
2021/09/07 12:57:17;;;;;;;;;1.60;1.00;;;;;28.40;21.50;102556.00;4880056;29;8880;-84
2021/09/07 12:59:58;;;;;;;;;0.00;0.00;;;;;28.00;19.36;102548.72;4863285;29;8895;-79
2021/09/07 13:02:53;;;;;;;;;0.00;0.00;;;;;27.50;18.27;102542.97;4863179;29;8874;-81
2021/09/07 13:05:49;;;;;;;;;0.00;0.00;;;;;28.05;19.53;102540.56;4857456;29;8936;-82